sensor_id;sensor_type;location;lat;lon;timestamp;temperature;humidity
40151;DHT22;25866;52.420;10.640;2023-02-28T00:00:28;-0.20;99.90
40151;DHT22;25866;52.420;10.640;2023-02-28T00:02:53;-0.20;99.90
40151;DHT22;25866;52.420;10.640;2023-02-28T00:05:21;-0.20;99.90
40151;DHT22;25866;52.420;10.640;2023-02-28T00:07:48;-0.30;99.90
40151;DHT22;25866;52.420;10.640;2023-02-28T00:10:18;-0.30;99.90
40151;DHT22;25866;52.420;10.640;2023-02-28T00:12:49;-0.30;99.90
40151;DHT22;25866;52.420;10.640;2023-02-28T00:15:15;-0.30;99.90
40151;DHT22;25866;52.420;10.640;2023-02-28T00:17:41;-0.40;99.90
40151;DHT22;25866;52.420;10.640;2023-02-28T00:20:08;-0.40;99.90
40151;DHT22;25866;52.420;10.640;2023-02-28T00:22:36;-0.40;99.90
40151;DHT22;25866;52.420;10.640;2023-02-28T00:25:02;-0.40;99.90
40151;DHT22;25866;52.420;10.640;2023-02-28T00:27:29;-0.40;99.90
40151;DHT22;25866;52.420;10.640;2023-02-28T00:29:55;-0.40;99.90
40151;DHT22;25866;52.420;10.640;2023-02-28T00:32:20;-0.30;99.90
40151;DHT22;25866;52.420;10.640;2023-02-28T00:34:46;-0.40;99.90
40151;DHT22;25866;52.420;10.640;2023-02-28T00:37:12;-0.50;99.90
40151;DHT22;25866;52.420;10.640;2023-02-28T00:39:38;-0.40;99.90
40151;DHT22;25866;52.420;10.640;2023-02-28T00:42:05;-0.40;99.90
40151;DHT22;25866;52.420;10.640;2023-02-28T00:44:40;-0.40;99.90
40151;DHT22;25866;52.420;10.640;2023-02-28T00:47:32;-0.50;99.90
40151;DHT22;25866;52.420;10.640;2023-02-28T00:50:13;-0.40;99.90
40151;DHT22;25866;52.420;10.640;2023-02-28T00:52:44;-0.50;99.90
40151;DHT22;25866;52.420;10.640;2023-02-28T00:55:10;-0.70;99.90
40151;DHT22;25866;52.420;10.640;2023-02-28T00:57:36;-0.80;99.90
40151;DHT22;25866;52.420;10.640;2023-02-28T01:00:02;-0.70;99.90
40151;DHT22;25866;52.420;10.640;2023-02-28T01:02:28;-0.70;99.90
40151;DHT22;25866;52.420;10.640;2023-02-28T01:04:54;-0.70;99.90
40151;DHT22;25866;52.420;10.640;2023-02-28T01:07:23;-0.70;99.90
40151;DHT22;25866;52.420;10.640;2023-02-28T01:09:49;-0.70;99.90
40151;DHT22;25866;52.420;10.640;2023-02-28T01:12:15;-0.80;99.90
40151;DHT22;25866;52.420;10.640;2023-02-28T01:14:40;-0.90;99.90
40151;DHT22;25866;52.420;10.640;2023-02-28T01:17:06;-0.80;99.90
40151;DHT22;25866;52.420;10.640;2023-02-28T01:19:32;-0.80;99.90
40151;DHT22;25866;52.420;10.640;2023-02-28T01:22:01;-0.80;99.90
40151;DHT22;25866;52.420;10.640;2023-02-28T01:24:27;-0.90;99.90
40151;DHT22;25866;52.420;10.640;2023-02-28T01:26:53;-0.90;99.90
40151;DHT22;25866;52.420;10.640;2023-02-28T01:29:19;-0.90;99.90
40151;DHT22;25866;52.420;10.640;2023-02-28T01:31:44;-0.90;99.90
40151;DHT22;25866;52.420;10.640;2023-02-28T01:34:10;-1.00;99.90
40151;DHT22;25866;52.420;10.640;2023-02-28T01:36:36;-1.00;99.90
40151;DHT22;25866;52.420;10.640;2023-02-28T01:39:02;-1.10;99.90
40151;DHT22;25866;52.420;10.640;2023-02-28T01:41:31;-1.10;99.90
40151;DHT22;25866;52.420;10.640;2023-02-28T01:44:03;-1.10;99.90
40151;DHT22;25866;52.420;10.640;2023-02-28T01:46:30;-1.00;99.90
40151;DHT22;25866;52.420;10.640;2023-02-28T01:49:05;-0.90;99.90
40151;DHT22;25866;52.420;10.640;2023-02-28T01:51:42;-1.00;99.90
40151;DHT22;25866;52.420;10.640;2023-02-28T01:54:29;-0.90;99.90
40151;DHT22;25866;52.420;10.640;2023-02-28T01:57:05;-0.90;99.90
40151;DHT22;25866;52.420;10.640;2023-02-28T02:02:13;-1.20;99.90
40151;DHT22;25866;52.420;10.640;2023-02-28T02:04:46;-1.20;99.90
40151;DHT22;25866;52.420;10.640;2023-02-28T02:07:16;-1.20;99.90
40151;DHT22;25866;52.420;10.640;2023-02-28T02:09:42;-1.20;99.90
40151;DHT22;25866;52.420;10.640;2023-02-28T02:12:39;-1.30;99.90
40151;DHT22;25866;52.420;10.640;2023-02-28T02:15:22;-1.30;99.90
40151;DHT22;25866;52.420;10.640;2023-02-28T02:17:56;-1.20;99.90
40151;DHT22;25866;52.420;10.640;2023-02-28T02:26:27;-1.10;99.90
40151;DHT22;25866;52.420;10.640;2023-02-28T02:32:14;-1.20;99.90
40151;DHT22;25866;52.420;10.640;2023-02-28T02:34:56;-1.20;99.90
40151;DHT22;25866;52.420;10.640;2023-02-28T02:43:20;-1.30;99.90
40151;DHT22;25866;52.420;10.640;2023-02-28T02:45:59;-1.20;99.90
40151;DHT22;25866;52.420;10.640;2023-02-28T02:48:30;-1.20;99.90
40151;DHT22;25866;52.420;10.640;2023-02-28T02:51:30;-1.30;99.90
40151;DHT22;25866;52.420;10.640;2023-02-28T02:54:05;-1.30;99.90
40151;DHT22;25866;52.420;10.640;2023-02-28T02:56:34;-1.40;99.90
40151;DHT22;25866;52.420;10.640;2023-02-28T02:59:03;-1.40;99.90
40151;DHT22;25866;52.420;10.640;2023-02-28T03:01:30;-1.40;99.90
40151;DHT22;25866;52.420;10.640;2023-02-28T03:03:59;-1.30;99.90
40151;DHT22;25866;52.420;10.640;2023-02-28T03:06:26;-1.30;99.90
40151;DHT22;25866;52.420;10.640;2023-02-28T03:08:53;-1.30;99.90
40151;DHT22;25866;52.420;10.640;2023-02-28T03:11:20;-1.30;99.90
40151;DHT22;25866;52.420;10.640;2023-02-28T03:14:46;-1.30;99.90
40151;DHT22;25866;52.420;10.640;2023-02-28T03:23:16;-1.60;99.90
40151;DHT22;25866;52.420;10.640;2023-02-28T03:31:34;-1.70;99.90
40151;DHT22;25866;52.420;10.640;2023-02-28T03:36:38;-1.50;99.90
40151;DHT22;25866;52.420;10.640;2023-02-28T03:39:13;-1.50;99.90
40151;DHT22;25866;52.420;10.640;2023-02-28T03:41:50;-1.60;99.90
40151;DHT22;25866;52.420;10.640;2023-02-28T03:44:30;-1.60;99.90
40151;DHT22;25866;52.420;10.640;2023-02-28T03:47:06;-1.70;99.90
40151;DHT22;25866;52.420;10.640;2023-02-28T03:49:41;-1.70;99.90
40151;DHT22;25866;52.420;10.640;2023-02-28T03:52:09;-1.60;99.90
40151;DHT22;25866;52.420;10.640;2023-02-28T03:54:42;-1.60;99.90
40151;DHT22;25866;52.420;10.640;2023-02-28T04:00:11;-1.60;99.90
40151;DHT22;25866;52.420;10.640;2023-02-28T04:02:39;-1.70;99.90
40151;DHT22;25866;52.420;10.640;2023-02-28T04:05:05;-1.80;99.90
40151;DHT22;25866;52.420;10.640;2023-02-28T04:07:32;-1.80;99.90
40151;DHT22;25866;52.420;10.640;2023-02-28T04:10:00;-1.80;99.90
40151;DHT22;25866;52.420;10.640;2023-02-28T04:12:33;-1.80;99.90
40151;DHT22;25866;52.420;10.640;2023-02-28T04:14:58;-1.80;99.90
40151;DHT22;25866;52.420;10.640;2023-02-28T04:17:24;-1.80;99.90
40151;DHT22;25866;52.420;10.640;2023-02-28T04:19:50;-1.80;99.90
40151;DHT22;25866;52.420;10.640;2023-02-28T04:22:15;-1.90;99.90
40151;DHT22;25866;52.420;10.640;2023-02-28T04:24:43;-2.00;99.90
40151;DHT22;25866;52.420;10.640;2023-02-28T04:27:09;-2.10;99.90
40151;DHT22;25866;52.420;10.640;2023-02-28T04:29:34;-2.10;99.90
40151;DHT22;25866;52.420;10.640;2023-02-28T04:32:02;-2.20;99.90
40151;DHT22;25866;52.420;10.640;2023-02-28T04:34:31;-2.20;99.90
40151;DHT22;25866;52.420;10.640;2023-02-28T04:36:57;-2.30;99.90
40151;DHT22;25866;52.420;10.640;2023-02-28T04:39:24;-2.30;99.90
40151;DHT22;25866;52.420;10.640;2023-02-28T04:41:50;-2.20;99.90
40151;DHT22;25866;52.420;10.640;2023-02-28T04:44:16;-2.20;99.90
40151;DHT22;25866;52.420;10.640;2023-02-28T04:46:42;-2.10;99.90
40151;DHT22;25866;52.420;10.640;2023-02-28T04:49:09;-2.10;99.90
40151;DHT22;25866;52.420;10.640;2023-02-28T04:51:36;-2.00;99.90
40151;DHT22;25866;52.420;10.640;2023-02-28T04:54:02;-2.00;99.90
40151;DHT22;25866;52.420;10.640;2023-02-28T04:56:27;-2.00;99.90
40151;DHT22;25866;52.420;10.640;2023-02-28T04:58:53;-2.10;99.90
40151;DHT22;25866;52.420;10.640;2023-02-28T05:01:29;-2.10;99.90
40151;DHT22;25866;52.420;10.640;2023-02-28T05:03:56;-2.10;99.90
40151;DHT22;25866;52.420;10.640;2023-02-28T05:06:24;-2.20;99.90
40151;DHT22;25866;52.420;10.640;2023-02-28T05:08:50;-2.20;99.90
40151;DHT22;25866;52.420;10.640;2023-02-28T05:11:29;-2.10;99.90
40151;DHT22;25866;52.420;10.640;2023-02-28T05:13:59;-2.10;99.90
40151;DHT22;25866;52.420;10.640;2023-02-28T05:16:24;-2.00;99.90
40151;DHT22;25866;52.420;10.640;2023-02-28T05:18:50;-2.00;99.90
40151;DHT22;25866;52.420;10.640;2023-02-28T05:24:00;-2.10;99.90
40151;DHT22;25866;52.420;10.640;2023-02-28T05:26:27;-2.10;99.90
40151;DHT22;25866;52.420;10.640;2023-02-28T05:28:53;-2.10;99.90
40151;DHT22;25866;52.420;10.640;2023-02-28T05:31:20;-2.10;99.90
40151;DHT22;25866;52.420;10.640;2023-02-28T05:33:46;-2.20;99.90
40151;DHT22;25866;52.420;10.640;2023-02-28T05:36:12;-2.20;99.90
40151;DHT22;25866;52.420;10.640;2023-02-28T05:38:38;-2.20;99.90
40151;DHT22;25866;52.420;10.640;2023-02-28T05:41:08;-2.20;99.90
40151;DHT22;25866;52.420;10.640;2023-02-28T05:43:35;-2.20;99.90
40151;DHT22;25866;52.420;10.640;2023-02-28T05:46:06;-2.20;99.90
40151;DHT22;25866;52.420;10.640;2023-02-28T05:48:33;-2.30;99.90
40151;DHT22;25866;52.420;10.640;2023-02-28T05:51:01;-2.30;99.90
40151;DHT22;25866;52.420;10.640;2023-02-28T05:53:39;-2.40;99.90
40151;DHT22;25866;52.420;10.640;2023-02-28T05:56:08;-2.50;99.90
40151;DHT22;25866;52.420;10.640;2023-02-28T05:58:34;-2.60;99.90
40151;DHT22;25866;52.420;10.640;2023-02-28T06:01:18;-2.60;99.90
40151;DHT22;25866;52.420;10.640;2023-02-28T06:03:44;-2.60;99.90
40151;DHT22;25866;52.420;10.640;2023-02-28T06:06:09;-2.50;99.90
40151;DHT22;25866;52.420;10.640;2023-02-28T06:08:35;-2.50;99.90
40151;DHT22;25866;52.420;10.640;2023-02-28T06:11:03;-2.50;99.90
40151;DHT22;25866;52.420;10.640;2023-02-28T06:13:29;-2.40;99.90
40151;DHT22;25866;52.420;10.640;2023-02-28T06:15:55;-2.50;99.90
40151;DHT22;25866;52.420;10.640;2023-02-28T06:18:20;-2.50;99.90
40151;DHT22;25866;52.420;10.640;2023-02-28T06:20:53;-2.60;99.90
40151;DHT22;25866;52.420;10.640;2023-02-28T06:23:21;-2.70;99.90
40151;DHT22;25866;52.420;10.640;2023-02-28T06:25:47;-2.80;99.90
40151;DHT22;25866;52.420;10.640;2023-02-28T06:28:13;-2.80;99.90
40151;DHT22;25866;52.420;10.640;2023-02-28T06:30:39;-2.80;99.90
40151;DHT22;25866;52.420;10.640;2023-02-28T06:33:05;-2.80;99.90
40151;DHT22;25866;52.420;10.640;2023-02-28T06:35:31;-2.80;99.90
40151;DHT22;25866;52.420;10.640;2023-02-28T06:37:57;-2.80;99.90
40151;DHT22;25866;52.420;10.640;2023-02-28T06:40:22;-2.80;99.90
40151;DHT22;25866;52.420;10.640;2023-02-28T06:42:49;-2.80;99.90
40151;DHT22;25866;52.420;10.640;2023-02-28T06:45:15;-2.80;99.90
40151;DHT22;25866;52.420;10.640;2023-02-28T06:47:41;-2.60;99.90
40151;DHT22;25866;52.420;10.640;2023-02-28T06:50:09;-2.50;99.90
40151;DHT22;25866;52.420;10.640;2023-02-28T06:52:39;-2.50;99.90
40151;DHT22;25866;52.420;10.640;2023-02-28T06:55:06;-2.50;99.90
40151;DHT22;25866;52.420;10.640;2023-02-28T06:57:35;-2.50;99.90
40151;DHT22;25866;52.420;10.640;2023-02-28T07:00:03;-2.60;99.90
40151;DHT22;25866;52.420;10.640;2023-02-28T07:02:30;-2.60;99.90
40151;DHT22;25866;52.420;10.640;2023-02-28T07:04:57;-2.60;99.90
40151;DHT22;25866;52.420;10.640;2023-02-28T07:07:23;-2.60;99.90
40151;DHT22;25866;52.420;10.640;2023-02-28T07:09:49;-2.50;99.90
40151;DHT22;25866;52.420;10.640;2023-02-28T07:12:15;-2.50;99.90
40151;DHT22;25866;52.420;10.640;2023-02-28T07:14:41;-2.40;99.90
40151;DHT22;25866;52.420;10.640;2023-02-28T07:17:08;-2.30;99.90
40151;DHT22;25866;52.420;10.640;2023-02-28T07:19:34;-2.20;99.90
40151;DHT22;25866;52.420;10.640;2023-02-28T07:22:01;-2.20;99.90
40151;DHT22;25866;52.420;10.640;2023-02-28T07:24:28;-2.20;99.90
40151;DHT22;25866;52.420;10.640;2023-02-28T07:26:55;-2.20;99.90
40151;DHT22;25866;52.420;10.640;2023-02-28T07:29:21;-2.20;99.90
40151;DHT22;25866;52.420;10.640;2023-02-28T07:31:47;-2.10;99.90
40151;DHT22;25866;52.420;10.640;2023-02-28T07:34:14;-2.00;99.90
40151;DHT22;25866;52.420;10.640;2023-02-28T07:36:42;-2.00;99.90
40151;DHT22;25866;52.420;10.640;2023-02-28T07:39:07;-1.90;99.90
40151;DHT22;25866;52.420;10.640;2023-02-28T07:41:34;-1.90;99.90
40151;DHT22;25866;52.420;10.640;2023-02-28T07:44:04;-1.80;99.90
40151;DHT22;25866;52.420;10.640;2023-02-28T07:46:29;-1.70;99.90
40151;DHT22;25866;52.420;10.640;2023-02-28T07:49:00;-1.60;99.90
40151;DHT22;25866;52.420;10.640;2023-02-28T07:51:31;-1.40;99.90
40151;DHT22;25866;52.420;10.640;2023-02-28T07:53:57;-1.30;99.90
40151;DHT22;25866;52.420;10.640;2023-02-28T07:56:23;-1.20;99.90
40151;DHT22;25866;52.420;10.640;2023-02-28T07:58:49;-1.10;99.90
40151;DHT22;25866;52.420;10.640;2023-02-28T08:01:14;-0.90;99.90
40151;DHT22;25866;52.420;10.640;2023-02-28T08:03:41;-0.80;99.90
40151;DHT22;25866;52.420;10.640;2023-02-28T08:06:14;-0.70;99.90
40151;DHT22;25866;52.420;10.640;2023-02-28T08:08:41;-0.60;99.90
40151;DHT22;25866;52.420;10.640;2023-02-28T08:11:06;-0.50;99.90
40151;DHT22;25866;52.420;10.640;2023-02-28T08:13:33;-0.30;99.90
40151;DHT22;25866;52.420;10.640;2023-02-28T08:16:01;-0.20;99.90
40151;DHT22;25866;52.420;10.640;2023-02-28T08:18:27;-0.10;99.90
40151;DHT22;25866;52.420;10.640;2023-02-28T08:20:52;0.00;99.90
40151;DHT22;25866;52.420;10.640;2023-02-28T08:23:18;0.10;99.90
40151;DHT22;25866;52.420;10.640;2023-02-28T08:25:44;0.20;99.90
40151;DHT22;25866;52.420;10.640;2023-02-28T08:28:10;0.30;99.90
40151;DHT22;25866;52.420;10.640;2023-02-28T08:30:35;0.50;99.90
40151;DHT22;25866;52.420;10.640;2023-02-28T08:33:02;0.70;99.90
40151;DHT22;25866;52.420;10.640;2023-02-28T08:35:27;0.80;99.90
40151;DHT22;25866;52.420;10.640;2023-02-28T08:37:53;0.90;99.90
40151;DHT22;25866;52.420;10.640;2023-02-28T08:40:18;1.00;99.90
40151;DHT22;25866;52.420;10.640;2023-02-28T08:42:51;1.20;99.90
40151;DHT22;25866;52.420;10.640;2023-02-28T08:45:20;1.30;99.90
40151;DHT22;25866;52.420;10.640;2023-02-28T08:48:08;1.40;99.90
40151;DHT22;25866;52.420;10.640;2023-02-28T08:50:39;1.50;99.90
40151;DHT22;25866;52.420;10.640;2023-02-28T08:53:25;1.50;99.90
40151;DHT22;25866;52.420;10.640;2023-02-28T08:56:08;1.60;99.90
40151;DHT22;25866;52.420;10.640;2023-02-28T08:58:34;1.70;99.90
40151;DHT22;25866;52.420;10.640;2023-02-28T09:01:07;1.70;99.90
40151;DHT22;25866;52.420;10.640;2023-02-28T09:03:33;1.80;99.90
40151;DHT22;25866;52.420;10.640;2023-02-28T09:06:00;1.90;99.90
40151;DHT22;25866;52.420;10.640;2023-02-28T09:08:29;2.00;99.90
40151;DHT22;25866;52.420;10.640;2023-02-28T09:10:56;2.00;99.90
40151;DHT22;25866;52.420;10.640;2023-02-28T09:13:27;2.10;99.90
40151;DHT22;25866;52.420;10.640;2023-02-28T09:15:53;2.20;99.90
40151;DHT22;25866;52.420;10.640;2023-02-28T09:18:25;2.20;99.90
40151;DHT22;25866;52.420;10.640;2023-02-28T09:20:52;2.30;99.90
40151;DHT22;25866;52.420;10.640;2023-02-28T09:23:19;2.30;99.90
40151;DHT22;25866;52.420;10.640;2023-02-28T09:25:52;2.40;99.90
40151;DHT22;25866;52.420;10.640;2023-02-28T09:28:23;2.50;99.90
40151;DHT22;25866;52.420;10.640;2023-02-28T09:30:53;2.50;99.90
40151;DHT22;25866;52.420;10.640;2023-02-28T09:33:22;2.60;99.90
40151;DHT22;25866;52.420;10.640;2023-02-28T09:35:49;2.70;99.90
40151;DHT22;25866;52.420;10.640;2023-02-28T09:38:15;2.80;99.90
40151;DHT22;25866;52.420;10.640;2023-02-28T09:40:56;2.80;99.90
40151;DHT22;25866;52.420;10.640;2023-02-28T09:43:26;2.90;99.90
40151;DHT22;25866;52.420;10.640;2023-02-28T09:46:43;2.90;99.90
40151;DHT22;25866;52.420;10.640;2023-02-28T09:48:46;3.00;99.90
40151;DHT22;25866;52.420;10.640;2023-02-28T09:53:58;3.10;99.90
40151;DHT22;25866;52.420;10.640;2023-02-28T09:56:39;3.10;99.90
40151;DHT22;25866;52.420;10.640;2023-02-28T09:59:38;3.30;99.90
40151;DHT22;25866;52.420;10.640;2023-02-28T10:05:11;3.30;99.90
40151;DHT22;25866;52.420;10.640;2023-02-28T10:10:35;3.40;99.90
40151;DHT22;25866;52.420;10.640;2023-02-28T10:15:58;3.50;99.90
40151;DHT22;25866;52.420;10.640;2023-02-28T10:18:29;3.60;99.90
40151;DHT22;25866;52.420;10.640;2023-02-28T10:20:56;3.80;99.90
40151;DHT22;25866;52.420;10.640;2023-02-28T10:23:27;3.80;99.90
40151;DHT22;25866;52.420;10.640;2023-02-28T10:25:59;3.90;99.90
40151;DHT22;25866;52.420;10.640;2023-02-28T10:28:26;3.90;99.90
40151;DHT22;25866;52.420;10.640;2023-02-28T10:30:54;4.00;99.90
40151;DHT22;25866;52.420;10.640;2023-02-28T10:33:24;4.00;99.90
40151;DHT22;25866;52.420;10.640;2023-02-28T10:35:51;4.00;99.90
40151;DHT22;25866;52.420;10.640;2023-02-28T10:41:15;4.00;99.90
40151;DHT22;25866;52.420;10.640;2023-02-28T10:43:42;4.10;99.90
40151;DHT22;25866;52.420;10.640;2023-02-28T10:48:43;4.20;99.90
40151;DHT22;25866;52.420;10.640;2023-02-28T10:51:15;4.20;99.90
40151;DHT22;25866;52.420;10.640;2023-02-28T10:53:48;4.20;99.90
40151;DHT22;25866;52.420;10.640;2023-02-28T10:56:20;4.20;99.90
40151;DHT22;25866;52.420;10.640;2023-02-28T10:59:00;4.10;99.90
40151;DHT22;25866;52.420;10.640;2023-02-28T11:01:39;4.20;99.90
40151;DHT22;25866;52.420;10.640;2023-02-28T11:04:20;4.30;99.90
40151;DHT22;25866;52.420;10.640;2023-02-28T11:07:21;4.30;99.90
40151;DHT22;25866;52.420;10.640;2023-02-28T11:09:56;4.50;99.90
40151;DHT22;25866;52.420;10.640;2023-02-28T11:17:43;5.10;99.90
40151;DHT22;25866;52.420;10.640;2023-02-28T11:20:19;5.10;99.80
40151;DHT22;25866;52.420;10.640;2023-02-28T11:22:46;5.10;99.00
40151;DHT22;25866;52.420;10.640;2023-02-28T11:25:33;5.00;99.40
40151;DHT22;25866;52.420;10.640;2023-02-28T11:28:01;4.90;99.80
40151;DHT22;25866;52.420;10.640;2023-02-28T11:30:41;4.90;99.90
40151;DHT22;25866;52.420;10.640;2023-02-28T11:33:23;4.90;99.10
40151;DHT22;25866;52.420;10.640;2023-02-28T11:35:53;4.90;99.40
40151;DHT22;25866;52.420;10.640;2023-02-28T11:38:20;4.70;99.20
40151;DHT22;25866;52.420;10.640;2023-02-28T11:40:58;4.70;99.50
40151;DHT22;25866;52.420;10.640;2023-02-28T11:46:43;4.70;99.40
40151;DHT22;25866;52.420;10.640;2023-02-28T11:49:27;4.60;99.20
40151;DHT22;25866;52.420;10.640;2023-02-28T11:52:05;4.40;99.60
40151;DHT22;25866;52.420;10.640;2023-02-28T11:54:52;4.40;99.70
40151;DHT22;25866;52.420;10.640;2023-02-28T12:02:49;5.00;98.70
40151;DHT22;25866;52.420;10.640;2023-02-28T12:05:36;5.00;98.30
40151;DHT22;25866;52.420;10.640;2023-02-28T12:11:30;4.80;98.90
40151;DHT22;25866;52.420;10.640;2023-02-28T12:19:45;4.90;98.10
40151;DHT22;25866;52.420;10.640;2023-02-28T12:22:20;4.90;97.70
40151;DHT22;25866;52.420;10.640;2023-02-28T12:27:45;5.20;97.80
40151;DHT22;25866;52.420;10.640;2023-02-28T12:30:27;5.20;97.20
40151;DHT22;25866;52.420;10.640;2023-02-28T12:33:08;5.20;96.20
40151;DHT22;25866;52.420;10.640;2023-02-28T12:35:58;5.20;95.60
40151;DHT22;25866;52.420;10.640;2023-02-28T12:44:35;5.40;96.10
40151;DHT22;25866;52.420;10.640;2023-02-28T12:47:15;5.40;95.20
40151;DHT22;25866;52.420;10.640;2023-02-28T12:49:54;5.30;95.90
40151;DHT22;25866;52.420;10.640;2023-02-28T12:52:35;5.30;95.40
40151;DHT22;25866;52.420;10.640;2023-02-28T12:55:08;5.30;95.60
40151;DHT22;25866;52.420;10.640;2023-02-28T12:57:49;5.50;95.20
40151;DHT22;25866;52.420;10.640;2023-02-28T13:00:20;5.50;96.00
40151;DHT22;25866;52.420;10.640;2023-02-28T13:03:29;5.50;96.30
40151;DHT22;25866;52.420;10.640;2023-02-28T13:06:13;5.50;96.10
40151;DHT22;25866;52.420;10.640;2023-02-28T13:11:44;5.70;95.50
40151;DHT22;25866;52.420;10.640;2023-02-28T13:14:29;5.70;94.40
40151;DHT22;25866;52.420;10.640;2023-02-28T13:16:57;5.60;95.10
40151;DHT22;25866;52.420;10.640;2023-02-28T13:19:25;5.90;95.30
40151;DHT22;25866;52.420;10.640;2023-02-28T13:21:51;6.00;96.50
40151;DHT22;25866;52.420;10.640;2023-02-28T13:24:48;6.10;95.40
40151;DHT22;25866;52.420;10.640;2023-02-28T13:29:42;5.90;94.80
40151;DHT22;25866;52.420;10.640;2023-02-28T13:39:55;5.90;95.40
40151;DHT22;25866;52.420;10.640;2023-02-28T13:47:44;5.80;94.80
40151;DHT22;25866;52.420;10.640;2023-02-28T13:50:30;5.90;95.10
40151;DHT22;25866;52.420;10.640;2023-02-28T14:04:09;6.00;95.60
40151;DHT22;25866;52.420;10.640;2023-02-28T14:06:39;5.90;94.90
40151;DHT22;25866;52.420;10.640;2023-02-28T14:09:32;5.90;94.90
40151;DHT22;25866;52.420;10.640;2023-02-28T14:15:04;6.00;94.70
40151;DHT22;25866;52.420;10.640;2023-02-28T14:17:31;6.10;94.60
40151;DHT22;25866;52.420;10.640;2023-02-28T14:19:58;6.00;93.60
40151;DHT22;25866;52.420;10.640;2023-02-28T14:25:36;6.20;94.70
40151;DHT22;25866;52.420;10.640;2023-02-28T14:31:13;6.00;94.70
40151;DHT22;25866;52.420;10.640;2023-02-28T14:34:03;6.00;94.30
40151;DHT22;25866;52.420;10.640;2023-02-28T14:36:42;5.90;95.20
40151;DHT22;25866;52.420;10.640;2023-02-28T14:39:21;6.00;95.20
40151;DHT22;25866;52.420;10.640;2023-02-28T14:41:48;6.20;94.50
40151;DHT22;25866;52.420;10.640;2023-02-28T14:44:23;6.10;94.90
40151;DHT22;25866;52.420;10.640;2023-02-28T14:47:00;6.10;96.00
40151;DHT22;25866;52.420;10.640;2023-02-28T14:49:35;5.90;94.40
40151;DHT22;25866;52.420;10.640;2023-02-28T14:52:07;5.80;95.30
40151;DHT22;25866;52.420;10.640;2023-02-28T14:54:39;5.70;95.00
40151;DHT22;25866;52.420;10.640;2023-02-28T14:57:05;5.60;95.10
40151;DHT22;25866;52.420;10.640;2023-02-28T14:59:34;5.60;95.60
40151;DHT22;25866;52.420;10.640;2023-02-28T15:02:22;5.60;94.90
40151;DHT22;25866;52.420;10.640;2023-02-28T15:05:00;5.70;96.50
40151;DHT22;25866;52.420;10.640;2023-02-28T15:07:26;5.70;95.70
40151;DHT22;25866;52.420;10.640;2023-02-28T15:12:34;5.60;96.30
40151;DHT22;25866;52.420;10.640;2023-02-28T15:15:01;5.50;95.10
40151;DHT22;25866;52.420;10.640;2023-02-28T15:17:27;5.40;95.00
40151;DHT22;25866;52.420;10.640;2023-02-28T15:19:53;5.40;94.90
40151;DHT22;25866;52.420;10.640;2023-02-28T15:22:32;5.30;95.00
40151;DHT22;25866;52.420;10.640;2023-02-28T15:24:59;5.30;95.90
40151;DHT22;25866;52.420;10.640;2023-02-28T15:27:27;5.20;95.30
40151;DHT22;25866;52.420;10.640;2023-02-28T15:29:57;5.10;96.20
40151;DHT22;25866;52.420;10.640;2023-02-28T15:32:34;5.10;95.80
40151;DHT22;25866;52.420;10.640;2023-02-28T15:37:56;5.10;96.30
40151;DHT22;25866;52.420;10.640;2023-02-28T15:40:23;5.00;96.30
40151;DHT22;25866;52.420;10.640;2023-02-28T15:43:13;5.00;97.60
40151;DHT22;25866;52.420;10.640;2023-02-28T15:45:49;4.90;96.60
40151;DHT22;25866;52.420;10.640;2023-02-28T15:48:22;4.90;97.40
40151;DHT22;25866;52.420;10.640;2023-02-28T15:50:54;4.90;97.10
40151;DHT22;25866;52.420;10.640;2023-02-28T15:53:31;4.80;97.10
40151;DHT22;25866;52.420;10.640;2023-02-28T15:56:04;4.80;97.80
40151;DHT22;25866;52.420;10.640;2023-02-28T15:58:30;4.70;97.90
40151;DHT22;25866;52.420;10.640;2023-02-28T16:01:20;4.70;97.80
40151;DHT22;25866;52.420;10.640;2023-02-28T16:03:51;4.70;97.30
40151;DHT22;25866;52.420;10.640;2023-02-28T16:08:48;4.70;96.70
40151;DHT22;25866;52.420;10.640;2023-02-28T16:11:16;4.60;96.50
40151;DHT22;25866;52.420;10.640;2023-02-28T16:13:42;4.60;96.10
40151;DHT22;25866;52.420;10.640;2023-02-28T16:16:08;4.60;96.40
40151;DHT22;25866;52.420;10.640;2023-02-28T16:18:33;4.50;96.70
40151;DHT22;25866;52.420;10.640;2023-02-28T16:20:59;4.50;97.00
40151;DHT22;25866;52.420;10.640;2023-02-28T16:23:25;4.40;96.60
40151;DHT22;25866;52.420;10.640;2023-02-28T16:25:50;4.40;96.80
40151;DHT22;25866;52.420;10.640;2023-02-28T16:28:30;4.40;96.80
40151;DHT22;25866;52.420;10.640;2023-02-28T16:30:59;4.30;96.80
40151;DHT22;25866;52.420;10.640;2023-02-28T16:33:25;4.20;97.30
40151;DHT22;25866;52.420;10.640;2023-02-28T16:35:50;4.10;97.70
40151;DHT22;25866;52.420;10.640;2023-02-28T16:38:16;4.10;97.60
40151;DHT22;25866;52.420;10.640;2023-02-28T16:40:42;4.10;98.10
40151;DHT22;25866;52.420;10.640;2023-02-28T16:43:13;4.00;98.60
40151;DHT22;25866;52.420;10.640;2023-02-28T16:45:45;3.90;99.10
40151;DHT22;25866;52.420;10.640;2023-02-28T16:48:18;3.80;99.20
40151;DHT22;25866;52.420;10.640;2023-02-28T16:50:45;3.80;99.30
40151;DHT22;25866;52.420;10.640;2023-02-28T16:53:27;3.70;99.40
40151;DHT22;25866;52.420;10.640;2023-02-28T16:55:55;3.60;99.60
40151;DHT22;25866;52.420;10.640;2023-02-28T16:58:22;3.50;99.90
40151;DHT22;25866;52.420;10.640;2023-02-28T17:00:52;3.50;99.90
40151;DHT22;25866;52.420;10.640;2023-02-28T17:03:27;3.50;99.90
40151;DHT22;25866;52.420;10.640;2023-02-28T17:05:56;3.30;99.90
40151;DHT22;25866;52.420;10.640;2023-02-28T17:08:22;3.30;99.90
40151;DHT22;25866;52.420;10.640;2023-02-28T17:10:48;3.30;99.90
40151;DHT22;25866;52.420;10.640;2023-02-28T17:13:13;3.20;99.90
40151;DHT22;25866;52.420;10.640;2023-02-28T17:15:39;3.20;99.90
40151;DHT22;25866;52.420;10.640;2023-02-28T17:18:06;3.10;99.90
40151;DHT22;25866;52.420;10.640;2023-02-28T17:20:34;3.10;99.90
40151;DHT22;25866;52.420;10.640;2023-02-28T17:23:00;3.00;99.90
40151;DHT22;25866;52.420;10.640;2023-02-28T17:25:26;2.90;99.90
40151;DHT22;25866;52.420;10.640;2023-02-28T17:27:51;2.80;99.90
40151;DHT22;25866;52.420;10.640;2023-02-28T17:30:20;2.80;99.90
40151;DHT22;25866;52.420;10.640;2023-02-28T17:32:46;2.80;99.90
40151;DHT22;25866;52.420;10.640;2023-02-28T17:35:12;2.70;99.90
40151;DHT22;25866;52.420;10.640;2023-02-28T17:37:38;2.60;99.90
40151;DHT22;25866;52.420;10.640;2023-02-28T17:40:05;2.60;99.90
40151;DHT22;25866;52.420;10.640;2023-02-28T17:42:30;2.60;99.90
40151;DHT22;25866;52.420;10.640;2023-02-28T17:44:56;2.60;99.90
40151;DHT22;25866;52.420;10.640;2023-02-28T17:47:22;2.50;99.90
40151;DHT22;25866;52.420;10.640;2023-02-28T17:49:48;2.50;99.90
40151;DHT22;25866;52.420;10.640;2023-02-28T17:52:14;2.50;99.90
40151;DHT22;25866;52.420;10.640;2023-02-28T17:54:39;2.40;99.90
40151;DHT22;25866;52.420;10.640;2023-02-28T17:57:05;2.40;99.90